Time;durP1;ratioP1;P1;durP2;ratioP2;P2;SDS_P1;SDS_P2;PMS_P1;PMS_P2;Temp;Humidity;BMP_temperature;BMP_pressure;BME280_temperature;BME280_humidity;BME280_pressure;Samples;Min_cycle;Max_cycle;Signal;HPM_P1;HPM_P2
2023/06/19 00:01:36;;;;;;;11.95;4.15;;;20.40;99.90;;;;;;5071559;28;20568;-72
2023/06/19 00:04:02;;;;;;;11.40;3.80;;;20.40;99.90;;;;;;5057970;28;21106;-73
2023/06/19 00:06:29;;;;;;;10.63;4.15;;;20.40;99.90;;;;;;5058533;28;20431;-72
2023/06/19 00:08:55;;;;;;;11.50;3.90;;;20.40;99.90;;;;;;5059395;28;20865;-72
2023/06/19 00:11:21;;;;;;;11.32;3.85;;;20.40;99.90;;;;;;5061734;28;20993;-73
2023/06/19 00:13:47;;;;;;;12.20;4.18;;;20.40;99.90;;;;;;5076672;28;20862;-73
2023/06/19 00:16:14;;;;;;;11.35;3.78;;;20.50;99.90;;;;;;5057094;28;20403;-72
2023/06/19 00:18:40;;;;;;;10.88;3.83;;;20.50;99.90;;;;;;5056383;28;20767;-73
2023/06/19 00:21:08;;;;;;;11.52;3.75;;;20.50;99.90;;;;;;5060738;28;20498;-73
2023/06/19 00:23:35;;;;;;;9.80;3.72;;;20.50;99.90;;;;;;5056256;28;20739;-73
2023/06/19 00:26:01;;;;;;;14.73;4.25;;;20.50;99.90;;;;;;5051818;28;20403;-73
2023/06/19 00:28:29;;;;;;;12.20;3.97;;;20.50;99.90;;;;;;5056470;28;20418;-73
2023/06/19 00:30:56;;;;;;;9.10;3.63;;;20.50;99.90;;;;;;5060057;28;20413;-72
2023/06/19 00:33:22;;;;;;;13.15;4.10;;;20.50;99.90;;;;;;5058151;28;20410;-73
2023/06/19 00:35:52;;;;;;;14.13;4.40;;;20.50;99.90;;;;;;5054817;28;21029;-73
2023/06/19 00:38:18;;;;;;;10.57;3.77;;;20.40;99.90;;;;;;5057666;28;20447;-73
2023/06/19 00:40:44;;;;;;;12.70;4.47;;;20.40;99.90;;;;;;5056604;28;20421;-73
2023/06/19 00:43:10;;;;;;;10.70;3.67;;;20.40;99.90;;;;;;5054652;28;20779;-73
2023/06/19 00:45:37;;;;;;;11.10;4.00;;;20.40;99.90;;;;;;5052124;28;20482;-73
2023/06/19 00:48:04;;;;;;;7.97;3.42;;;20.40;99.90;;;;;;5053650;28;20412;-73
2023/06/19 00:50:31;;;;;;;10.75;3.97;;;20.40;99.90;;;;;;5046231;28;20539;-72
2023/06/19 00:52:59;;;;;;;11.00;3.78;;;20.50;99.90;;;;;;5059163;28;20509;-72
2023/06/19 00:55:29;;;;;;;10.98;3.80;;;20.50;99.90;;;;;;5052081;28;20853;-74
2023/06/19 00:57:56;;;;;;;13.77;4.10;;;20.50;99.90;;;;;;5053384;28;20418;-73
2023/06/19 01:00:22;;;;;;;11.60;3.88;;;20.50;99.90;;;;;;5060055;28;20537;-75
2023/06/19 01:02:49;;;;;;;10.52;3.80;;;20.50;99.90;;;;;;5071165;28;20510;-74
2023/06/19 01:05:19;;;;;;;12.00;3.95;;;20.50;99.90;;;;;;5056877;28;20424;-75
2023/06/19 01:08:19;;;;;;;13.02;3.75;;;20.50;99.90;;;;;;5056806;28;20426;-75
2023/06/19 01:10:55;;;;;;;13.25;3.95;;;20.50;99.90;;;;;;5030507;28;20408;-75
2023/06/19 01:13:55;;;;;;;9.85;3.50;;;20.50;99.90;;;;;;5059419;28;20415;-74
2023/06/19 01:16:23;;;;;;;10.98;3.67;;;20.50;99.90;;;;;;5056305;28;20778;-75
2023/06/19 01:18:50;;;;;;;13.63;4.00;;;20.50;99.90;;;;;;5064772;28;20496;-75
2023/06/19 01:21:18;;;;;;;12.40;3.95;;;20.40;99.90;;;;;;5055887;28;21493;-75
2023/06/19 01:23:46;;;;;;;10.45;3.67;;;20.50;99.90;;;;;;5058066;28;20544;-75
2023/06/19 01:26:17;;;;;;;9.95;3.60;;;20.50;99.90;;;;;;5062331;28;20910;-74
2023/06/19 01:28:45;;;;;;;11.18;3.70;;;20.50;99.90;;;;;;5056574;28;20447;-74
2023/06/19 01:31:52;;;;;;;9.75;3.50;;;20.50;99.90;;;;;;5054180;28;20783;-74
2023/06/19 01:34:21;;;;;;;10.15;3.80;;;20.40;99.90;;;;;;5058554;28;20428;-74
2023/06/19 01:36:49;;;;;;;9.02;3.60;;;20.50;99.90;;;;;;5056123;28;20404;-74
2023/06/19 01:39:18;;;;;;;11.65;3.80;;;20.50;99.90;;;;;;5055877;28;20413;-74
2023/06/19 01:41:46;;;;;;;11.90;3.70;;;20.60;99.90;;;;;;5057380;28;20476;-75
2023/06/19 01:44:12;;;;;;;11.87;3.90;;;20.60;99.90;;;;;;5043266;28;20919;-75
2023/06/19 01:46:39;;;;;;;12.50;3.60;;;20.60;99.90;;;;;;5053705;28;20417;-75
2023/06/19 01:49:09;;;;;;;11.73;3.85;;;20.60;99.90;;;;;;5055898;28;20834;-74
2023/06/19 01:51:36;;;;;;;11.02;3.67;;;20.60;99.90;;;;;;5061820;28;20436;-75
2023/06/19 01:54:04;;;;;;;12.17;3.97;;;20.60;99.90;;;;;;5040086;28;20400;-75
2023/06/19 01:56:30;;;;;;;13.77;4.10;;;20.50;99.90;;;;;;5059704;28;20432;-75
2023/06/19 01:58:56;;;;;;;11.20;4.00;;;20.50;99.90;;;;;;5051788;28;20425;-75
2023/06/19 02:01:23;;;;;;;10.55;3.63;;;20.50;99.90;;;;;;5052551;28;20411;-75
2023/06/19 02:03:49;;;;;;;10.20;3.53;;;20.50;99.90;;;;;;5055248;28;20426;-75
2023/06/19 02:06:15;;;;;;;8.43;3.33;;;20.40;99.90;;;;;;5057976;28;20483;-74
2023/06/19 02:08:41;;;;;;;11.93;3.78;;;20.40;99.90;;;;;;5054231;28;21543;-74
2023/06/19 02:11:08;;;;;;;9.48;3.63;;;20.40;99.90;;;;;;5055280;28;20417;-74
2023/06/19 02:13:34;;;;;;;11.10;3.72;;;20.40;99.90;;;;;;5050368;28;20400;-74
2023/06/19 02:16:00;;;;;;;11.60;3.80;;;20.40;99.90;;;;;;5044546;28;20979;-74
2023/06/19 02:18:26;;;;;;;12.63;4.37;;;20.40;99.90;;;;;;5052326;28;20588;-74
2023/06/19 02:20:52;;;;;;;11.05;3.63;;;20.40;99.90;;;;;;5056570;28;20422;-74
2023/06/19 02:23:21;;;;;;;11.68;4.10;;;20.40;99.90;;;;;;5055698;28;20435;-74
2023/06/19 02:25:47;;;;;;;11.98;3.65;;;20.50;99.90;;;;;;5052458;28;20416;-74
2023/06/19 02:28:13;;;;;;;11.88;3.72;;;20.50;99.90;;;;;;5053703;28;20446;-74
2023/06/19 02:30:40;;;;;;;12.77;4.00;;;20.40;99.90;;;;;;5053535;28;20459;-74
2023/06/19 02:33:06;;;;;;;12.55;4.15;;;20.40;99.90;;;;;;5054051;28;20614;-74
2023/06/19 02:35:32;;;;;;;12.32;3.80;;;20.30;99.90;;;;;;5053512;28;20775;-74
2023/06/19 02:37:58;;;;;;;11.68;4.20;;;20.40;99.90;;;;;;5056250;28;20471;-74
2023/06/19 02:40:25;;;;;;;11.65;4.38;;;20.40;99.90;;;;;;5060686;28;20558;-73
2023/06/19 02:42:51;;;;;;;10.35;3.63;;;20.40;99.90;;;;;;5053286;28;20417;-74
2023/06/19 02:45:17;;;;;;;10.80;3.80;;;20.50;99.90;;;;;;5040042;28;20407;-74
2023/06/19 02:47:44;;;;;;;11.48;3.83;;;20.50;99.90;;;;;;5053392;28;20840;-74
2023/06/19 02:50:11;;;;;;;14.40;4.40;;;20.50;99.90;;;;;;5052751;28;20458;-74
2023/06/19 02:52:37;;;;;;;13.75;4.25;;;20.50;99.90;;;;;;5052574;28;20418;-74
2023/06/19 02:55:04;;;;;;;12.48;3.80;;;20.50;99.90;;;;;;5049286;28;20420;-74
2023/06/19 02:57:30;;;;;;;9.48;3.70;;;20.50;99.90;;;;;;5046298;28;20421;-74
2023/06/19 02:59:56;;;;;;;11.48;4.07;;;20.50;99.90;;;;;;5054196;28;20406;-74
2023/06/19 03:02:22;;;;;;;12.20;3.88;;;20.50;99.90;;;;;;5055917;28;20489;-73
2023/06/19 03:04:50;;;;;;;12.25;3.97;;;20.50;99.90;;;;;;5058170;28;21066;-73
2023/06/19 03:07:16;;;;;;;12.57;4.28;;;20.50;99.90;;;;;;5072718;28;21138;-73
2023/06/19 03:09:42;;;;;;;10.85;4.15;;;20.50;99.90;;;;;;5056641;28;20417;-73
2023/06/19 03:12:09;;;;;;;11.95;4.25;;;20.50;99.90;;;;;;5061545;28;20441;-73
2023/06/19 03:14:35;;;;;;;11.82;4.30;;;20.50;99.90;;;;;;5056919;28;20959;-73
2023/06/19 03:17:02;;;;;;;12.75;4.38;;;20.50;99.90;;;;;;5059127;28;20478;-74
2023/06/19 03:19:28;;;;;;;10.85;4.10;;;20.50;99.90;;;;;;5057298;28;20836;-74
2023/06/19 03:21:54;;;;;;;13.85;4.20;;;20.60;99.90;;;;;;5058233;28;20500;-75
2023/06/19 03:24:20;;;;;;;12.13;4.32;;;20.60;99.90;;;;;;5056367;28;20442;-74
2023/06/19 03:26:47;;;;;;;9.37;3.40;;;20.60;99.90;;;;;;5062614;28;20412;-73
2023/06/19 03:29:13;;;;;;;11.43;3.92;;;20.60;99.90;;;;;;5057960;28;20436;-74
2023/06/19 03:31:39;;;;;;;10.98;3.83;;;20.60;99.90;;;;;;5054279;28;20698;-73
2023/06/19 03:34:06;;;;;;;15.13;4.55;;;20.60;99.90;;;;;;5071475;28;20409;-73
2023/06/19 03:36:32;;;;;;;13.15;4.55;;;20.60;99.90;;;;;;5059357;28;20498;-73
2023/06/19 03:38:58;;;;;;;11.30;4.17;;;20.50;99.90;;;;;;5061373;28;20948;-73
2023/06/19 03:41:24;;;;;;;8.90;3.83;;;20.60;99.90;;;;;;5057260;28;20422;-75
2023/06/19 03:43:50;;;;;;;10.02;3.75;;;20.60;99.90;;;;;;5059531;28;20399;-75
2023/06/19 03:46:18;;;;;;;9.05;4.00;;;20.60;99.90;;;;;;5060152;28;20468;-75
2023/06/19 03:48:44;;;;;;;10.37;3.90;;;20.60;99.90;;;;;;5060213;28;20421;-75
2023/06/19 03:51:11;;;;;;;12.93;4.05;;;20.60;99.90;;;;;;5074654;28;20447;-75
2023/06/19 03:53:37;;;;;;;14.05;4.70;;;20.60;99.90;;;;;;5059243;28;20849;-75
2023/06/19 03:56:03;;;;;;;9.35;4.07;;;20.70;99.90;;;;;;5058100;28;20831;-74
2023/06/19 03:58:30;;;;;;;9.35;3.75;;;20.70;99.90;;;;;;5057019;28;20873;-75
2023/06/19 04:00:56;;;;;;;9.57;3.90;;;20.80;99.90;;;;;;5064093;28;20927;-75
2023/06/19 04:03:22;;;;;;;13.23;4.63;;;20.80;99.90;;;;;;5070752;28;20893;-75
2023/06/19 04:05:48;;;;;;;10.68;4.00;;;20.90;99.90;;;;;;5054636;28;20495;-75
2023/06/19 04:08:16;;;;;;;10.10;3.67;;;20.90;99.90;;;;;;5062160;28;20404;-74
2023/06/19 04:10:42;;;;;;;11.05;3.97;;;21.00;99.90;;;;;;5057895;28;20410;-75
2023/06/19 04:13:08;;;;;;;11.38;4.05;;;21.00;99.90;;;;;;5056648;28;20838;-76
2023/06/19 04:15:35;;;;;;;12.38;4.05;;;21.10;99.90;;;;;;5038485;28;20486;-75
2023/06/19 04:18:02;;;;;;;13.33;4.00;;;21.10;99.90;;;;;;5057610;28;20407;-75
2023/06/19 04:20:28;;;;;;;11.13;4.28;;;21.10;99.90;;;;;;5058380;28;20404;-76
2023/06/19 04:22:54;;;;;;;12.77;4.10;;;21.10;99.90;;;;;;5055269;28;20429;-75
2023/06/19 04:25:20;;;;;;;11.63;4.07;;;21.10;99.90;;;;;;5057991;28;20504;-75
2023/06/19 04:27:46;;;;;;;10.25;3.80;;;21.10;99.90;;;;;;5056703;28;20447;-75
2023/06/19 04:30:13;;;;;;;9.98;3.95;;;21.10;99.90;;;;;;5053227;28;21089;-75
2023/06/19 04:32:40;;;;;;;13.35;4.03;;;21.20;99.90;;;;;;5053366;28;20416;-75
2023/06/19 04:35:10;;;;;;;12.67;4.10;;;21.20;99.90;;;;;;5058239;28;20411;-73
2023/06/19 04:37:36;;;;;;;11.73;4.50;;;21.30;99.90;;;;;;5075396;28;20792;-73
2023/06/19 04:40:03;;;;;;;13.90;4.07;;;21.30;99.90;;;;;;5054114;28;20459;-74
2023/06/19 04:42:31;;;;;;;10.07;4.10;;;21.30;99.90;;;;;;5054403;28;20556;-76
2023/06/19 04:44:59;;;;;;;10.98;3.85;;;21.30;99.90;;;;;;5058511;28;21094;-76
2023/06/19 04:47:25;;;;;;;12.98;4.35;;;21.40;99.90;;;;;;5072583;28;20407;-76
2023/06/19 04:49:52;;;;;;;12.67;3.93;;;21.40;99.90;;;;;;5073499;28;20424;-76
2023/06/19 04:52:18;;;;;;;10.70;3.85;;;21.40;99.90;;;;;;5058310;28;20408;-76
2023/06/19 04:54:45;;;;;;;11.30;4.00;;;21.40;99.90;;;;;;5055904;28;20419;-76
2023/06/19 04:57:11;;;;;;;14.87;4.57;;;21.40;99.90;;;;;;5043034;28;20456;-76
2023/06/19 04:59:37;;;;;;;12.83;4.13;;;21.40;99.90;;;;;;5055981;28;20522;-76
2023/06/19 05:02:04;;;;;;;15.52;4.55;;;21.40;99.90;;;;;;5055750;28;20435;-76
2023/06/19 05:04:32;;;;;;;8.38;3.88;;;21.50;99.90;;;;;;5056509;28;20415;-76
2023/06/19 05:06:59;;;;;;;10.35;3.97;;;21.50;99.90;;;;;;5059625;28;20409;-76
2023/06/19 05:09:25;;;;;;;10.68;4.05;;;21.60;99.90;;;;;;5055708;28;20420;-73
2023/06/19 05:11:52;;;;;;;11.30;4.00;;;21.60;99.90;;;;;;5060110;28;20477;-73
2023/06/19 05:14:18;;;;;;;12.82;3.95;;;21.60;99.90;;;;;;5056528;28;20966;-73
2023/06/19 05:16:44;;;;;;;10.10;3.72;;;21.60;99.90;;;;;;5057821;28;20416;-73
2023/06/19 05:19:10;;;;;;;11.18;3.95;;;21.60;99.90;;;;;;5053786;28;20419;-73
2023/06/19 05:21:37;;;;;;;10.10;3.80;;;21.50;99.90;;;;;;5059805;28;20882;-73
2023/06/19 05:24:03;;;;;;;8.83;3.73;;;21.60;99.90;;;;;;5070283;28;20418;-73
2023/06/19 05:26:29;;;;;;;12.45;3.85;;;21.70;99.90;;;;;;5054757;28;20496;-73
2023/06/19 05:28:55;;;;;;;7.50;3.55;;;21.80;99.90;;;;;;5055111;28;20947;-73
2023/06/19 05:31:22;;;;;;;8.43;3.65;;;21.80;99.90;;;;;;5056675;28;20474;-73
2023/06/19 05:33:48;;;;;;;11.13;3.83;;;21.90;99.90;;;;;;5055840;28;20457;-73
2023/06/19 05:36:14;;;;;;;9.90;3.65;;;21.90;99.90;;;;;;5058882;28;20404;-73
2023/06/19 05:38:40;;;;;;;10.77;3.90;;;21.80;99.90;;;;;;5054815;28;20421;-75
2023/06/19 05:41:06;;;;;;;10.85;3.67;;;21.80;99.90;;;;;;5051069;28;21191;-75
2023/06/19 05:43:33;;;;;;;9.70;3.40;;;21.90;99.90;;;;;;5055180;28;20417;-74
2023/06/19 05:45:59;;;;;;;10.33;3.63;;;22.10;99.90;;;;;;5065616;28;20446;-73
2023/06/19 05:48:26;;;;;;;8.98;3.33;;;22.20;99.90;;;;;;5053461;28;20423;-73
2023/06/19 05:50:52;;;;;;;9.23;3.45;;;22.20;99.90;;;;;;5055847;28;20473;-74
2023/06/19 05:53:19;;;;;;;8.82;3.20;;;22.20;99.90;;;;;;5071643;28;20453;-73
2023/06/19 05:55:46;;;;;;;9.32;3.47;;;22.30;99.90;;;;;;5038295;28;20925;-74
2023/06/19 05:58:12;;;;;;;10.15;3.55;;;22.30;99.90;;;;;;5052786;28;20416;-73
2023/06/19 06:00:38;;;;;;;9.85;3.22;;;22.30;99.90;;;;;;5056970;28;20497;-74
2023/06/19 06:03:05;;;;;;;7.17;3.30;;;22.20;99.90;;;;;;5057693;28;20486;-73
2023/06/19 06:05:31;;;;;;;5.22;3.10;;;22.20;99.90;;;;;;5058827;28;20434;-75
2023/06/19 06:07:57;;;;;;;8.10;3.40;;;22.20;99.90;;;;;;5057348;28;20430;-75
2023/06/19 06:10:25;;;;;;;9.57;3.83;;;22.20;99.90;;;;;;5059467;28;20460;-75
2023/06/19 06:31:15;;;;;;;8.15;3.80;;;22.40;99.90;;;;;;5053816;28;20409;-74
2023/06/19 06:33:42;;;;;;;8.80;4.13;;;22.30;99.90;;;;;;5049976;28;20524;-74
2023/06/19 06:51:06;;;;;;;14.90;5.28;;;22.20;99.90;;;;;;4995318;28;20428;-73
2023/06/19 06:53:32;;;;;;;12.30;5.47;;;21.50;99.90;;;;;;4982329;28;21129;-75
2023/06/19 06:56:00;;;;;;;10.18;4.70;;;21.50;99.90;;;;;;4955562;28;21003;-75
2023/06/19 06:58:27;;;;;;;10.55;4.82;;;21.30;99.90;;;;;;4977763;28;20511;-75
2023/06/19 07:00:53;;;;;;;8.60;4.45;;;21.20;99.90;;;;;;4967791;28;20423;-75
2023/06/19 07:03:20;;;;;;;11.27;4.93;;;21.20;99.90;;;;;;4963078;28;20567;-75
2023/06/19 07:05:48;;;;;;;9.63;4.80;;;21.20;99.90;;;;;;4964383;28;20434;-75
2023/06/19 07:08:15;;;;;;;9.68;4.68;;;21.30;99.90;;;;;;4969599;28;20819;-75
2023/06/19 07:10:41;;;;;;;10.82;5.03;;;21.50;99.90;;;;;;4994577;28;20954;-75
2023/06/19 07:13:07;;;;;;;9.88;5.57;;;21.60;99.90;;;;;;4976090;28;20417;-75
2023/06/19 07:15:34;;;;;;;11.32;5.28;;;21.70;99.90;;;;;;4964495;28;20569;-76
2023/06/19 07:18:00;;;;;;;9.77;5.30;;;21.80;99.90;;;;;;4972301;28;20429;-76
2023/06/19 07:20:26;;;;;;;7.80;5.20;;;22.00;99.90;;;;;;4972387;28;20858;-74
2023/06/19 07:22:54;;;;;;;10.80;5.65;;;22.20;99.90;;;;;;4978979;28;20520;-75
2023/06/19 07:25:24;;;;;;;8.93;5.32;;;22.10;99.90;;;;;;4971983;28;21069;-75
2023/06/19 07:27:50;;;;;;;10.15;5.28;;;22.10;99.90;;;;;;4969155;28;20418;-76
2023/06/19 07:30:16;;;;;;;10.75;5.35;;;22.10;99.90;;;;;;4952254;28;20457;-74
2023/06/19 07:32:43;;;;;;;13.18;5.43;;;22.20;99.90;;;;;;4977024;28;20460;-75
2023/06/19 07:35:11;;;;;;;10.82;5.22;;;22.00;99.90;;;;;;4984209;28;20510;-75
2023/06/19 07:37:37;;;;;;;10.25;5.43;;;21.90;99.90;;;;;;4975551;28;20537;-75
2023/06/19 07:40:04;;;;;;;11.23;5.22;;;21.80;99.90;;;;;;4966762;28;20428;-74
2023/06/19 07:42:31;;;;;;;8.35;5.50;;;21.80;99.90;;;;;;4994510;28;20500;-74
2023/06/19 07:44:57;;;;;;;10.93;5.60;;;21.70;99.90;;;;;;4962416;28;20997;-74
2023/06/19 07:47:26;;;;;;;12.55;5.40;;;21.60;99.90;;;;;;4977440;28;20413;-74
2023/06/19 07:49:52;;;;;;;10.68;5.63;;;21.60;99.90;;;;;;4968889;28;21322;-75
2023/06/19 07:52:19;;;;;;;11.02;5.78;;;21.80;99.90;;;;;;4951664;28;20433;-74
2023/06/19 07:54:58;;;;;;;7.90;5.40;;;22.10;99.90;;;;;;4950319;28;20452;-74
2023/06/19 07:57:26;;;;;;;13.90;5.53;;;22.40;99.90;;;;;;4949850;28;20430;-74
2023/06/19 07:59:55;;;;;;;9.38;5.25;;;22.60;99.90;;;;;;4978392;28;20426;-74
2023/06/19 08:02:21;;;;;;;11.98;5.57;;;22.60;99.90;;;;;;4953898;28;20431;-74
2023/06/19 08:04:48;;;;;;;11.95;5.45;;;22.70;99.90;;;;;;4959801;28;20422;-73
2023/06/19 08:07:14;;;;;;;11.20;5.55;;;22.50;99.90;;;;;;4957914;28;20425;-74
2023/06/19 08:09:40;;;;;;;12.20;5.70;;;22.50;99.90;;;;;;4961552;28;20427;-75
2023/06/19 08:12:07;;;;;;;11.70;5.97;;;22.60;99.90;;;;;;4962583;28;21909;-75
2023/06/19 08:14:33;;;;;;;10.00;5.13;;;22.40;99.90;;;;;;4974883;28;20437;-75
2023/06/19 08:16:59;;;;;;;10.73;6.00;;;22.30;99.90;;;;;;4952900;28;20436;-75
2023/06/19 08:19:26;;;;;;;9.10;5.00;;;22.30;99.90;;;;;;4958575;28;20482;-75
2023/06/19 08:21:52;;;;;;;9.10;5.27;;;22.70;99.90;;;;;;4966872;28;20407;-75
2023/06/19 08:24:18;;;;;;;12.43;5.65;;;23.00;99.90;;;;;;4964984;28;21245;-75
2023/06/19 08:26:45;;;;;;;13.32;5.43;;;23.20;99.90;;;;;;4974271;28;20421;-75
2023/06/19 08:29:11;;;;;;;9.38;5.00;;;23.30;99.90;;;;;;4967059;28;20587;-76
2023/06/19 08:31:37;;;;;;;10.63;5.78;;;23.40;99.90;;;;;;4958650;28;20505;-74
2023/06/19 08:34:07;;;;;;;12.73;5.72;;;23.70;99.90;;;;;;4953906;28;20983;-74
2023/06/19 08:36:34;;;;;;;11.07;5.25;;;23.80;99.90;;;;;;4961330;28;20492;-74
2023/06/19 08:39:00;;;;;;;9.95;4.90;;;23.80;99.90;;;;;;4962289;28;20440;-74
2023/06/19 08:41:28;;;;;;;9.38;4.85;;;24.20;99.90;;;;;;4955361;28;20428;-74
2023/06/19 08:43:55;;;;;;;8.32;4.25;;;24.40;99.90;;;;;;4955307;28;20488;-74
2023/06/19 08:46:21;;;;;;;11.10;5.00;;;24.50;99.90;;;;;;4959415;28;20516;-74
2023/06/19 08:48:48;;;;;;;11.27;4.93;;;24.40;99.90;;;;;;4953743;28;20526;-74
2023/06/19 08:51:14;;;;;;;9.48;4.88;;;24.20;99.90;;;;;;4953587;28;20440;-74
2023/06/19 08:53:54;;;;;;;12.88;5.35;;;23.80;99.90;;;;;;4953634;28;20490;-74
2023/06/19 08:56:20;;;;;;;10.23;5.18;;;23.80;99.90;;;;;;4979791;28;20447;-74
2023/06/19 08:58:47;;;;;;;11.57;5.30;;;23.90;99.90;;;;;;4956685;28;20439;-74
2023/06/19 09:01:19;;;;;;;13.75;5.55;;;23.60;99.90;;;;;;4959485;28;20490;-74
2023/06/19 09:03:51;;;;;;;10.23;5.10;;;23.90;99.90;;;;;;4960137;28;20424;-74
2023/06/19 09:06:18;;;;;;;10.45;4.85;;;23.90;99.90;;;;;;4951063;28;20511;-74
2023/06/19 09:08:44;;;;;;;13.45;5.07;;;24.20;99.90;;;;;;4955278;28;21022;-74
2023/06/19 09:11:12;;;;;;;11.75;5.47;;;24.10;99.90;;;;;;4969807;28;21175;-74
2023/06/19 09:13:38;;;;;;;11.38;5.43;;;24.10;99.90;;;;;;4955745;28;20796;-74
2023/06/19 09:16:08;;;;;;;13.95;5.40;;;24.10;99.90;;;;;;4956416;28;20989;-74
2023/06/19 09:18:48;;;;;;;14.20;5.13;;;24.40;99.90;;;;;;4961630;28;20432;-74
2023/06/19 09:21:21;;;;;;;12.50;5.63;;;24.60;99.90;;;;;;4939943;28;20505;-74
2023/06/19 09:23:49;;;;;;;10.13;5.13;;;24.80;99.90;;;;;;4959565;28;20428;-74
2023/06/19 09:26:17;;;;;;;11.25;5.30;;;24.70;99.90;;;;;;4956139;28;20420;-74
2023/06/19 09:28:44;;;;;;;9.57;4.82;;;24.60;99.90;;;;;;4956254;28;20426;-74
2023/06/19 09:31:12;;;;;;;10.65;4.82;;;24.40;99.90;;;;;;4947102;28;20475;-74
2023/06/19 09:33:40;;;;;;;11.77;4.90;;;24.50;99.90;;;;;;4961109;28;20430;-74
2023/06/19 09:36:07;;;;;;;11.52;4.90;;;24.90;99.90;;;;;;4948754;28;20420;-74
2023/06/19 09:38:40;;;;;;;9.95;4.50;;;25.20;99.90;;;;;;4955780;28;20945;-74
2023/06/19 09:41:07;;;;;;;11.73;5.03;;;25.20;99.90;;;;;;4950446;28;20923;-74
2023/06/19 09:43:44;;;;;;;12.30;4.35;;;25.40;99.90;;;;;;4954591;28;20592;-74
2023/06/19 09:46:11;;;;;;;11.15;4.70;;;24.80;99.90;;;;;;4961347;28;20539;-74
2023/06/19 09:48:44;;;;;;;11.83;4.70;;;24.40;99.90;;;;;;4975472;28;20416;-74
2023/06/19 09:51:28;;;;;;;10.47;4.60;;;24.30;99.90;;;;;;4973302;28;20491;-74
2023/06/19 09:53:56;;;;;;;12.37;5.30;;;24.60;99.90;;;;;;4948419;28;20531;-74
2023/06/19 09:56:24;;;;;;;11.70;4.97;;;24.80;99.90;;;;;;4949258;28;20418;-74
2023/06/19 09:58:55;;;;;;;12.33;5.50;;;24.60;99.90;;;;;;4951616;28;20432;-75
2023/06/19 10:01:22;;;;;;;12.18;5.25;;;24.60;99.90;;;;;;4952968;28;20715;-74
2023/06/19 10:03:49;;;;;;;13.45;5.40;;;24.80;99.90;;;;;;4956568;28;20436;-74
2023/06/19 10:06:17;;;;;;;9.93;5.10;;;25.10;99.90;;;;;;4975955;28;20468;-74
2023/06/19 10:08:46;;;;;;;14.30;5.72;;;25.20;99.90;;;;;;4950470;28;20934;-75
2023/06/19 10:11:14;;;;;;;12.10;5.43;;;25.40;99.90;;;;;;4963199;28;20436;-77
2023/06/19 10:13:42;;;;;;;10.80;5.45;;;25.60;99.90;;;;;;4947695;28;20594;-75
2023/06/19 10:16:24;;;;;;;9.05;5.00;;;25.60;99.90;;;;;;4955219;28;20431;-75
2023/06/19 10:18:51;;;;;;;9.63;5.23;;;25.70;99.90;;;;;;4960017;28;20478;-75
2023/06/19 10:21:22;;;;;;;12.32;5.47;;;25.40;99.90;;;;;;4948969;28;20938;-74
2023/06/19 10:23:57;;;;;;;12.02;5.47;;;25.50;99.90;;;;;;4949932;28;20454;-74
2023/06/19 10:26:43;;;;;;;10.20;5.53;;;25.30;99.90;;;;;;4945418;28;20660;-74
2023/06/19 10:29:17;;;;;;;11.25;5.25;;;24.70;99.90;;;;;;4947121;28;20925;-75
2023/06/19 10:31:45;;;;;;;9.50;4.87;;;24.80;99.90;;;;;;4958455;28;20423;-75
2023/06/19 10:34:11;;;;;;;14.07;6.00;;;25.10;99.90;;;;;;4954149;28;20430;-75
2023/06/19 10:36:38;;;;;;;11.60;5.93;;;25.10;99.90;;;;;;4974074;28;20435;-75
2023/06/19 10:39:05;;;;;;;11.32;5.65;;;24.90;99.90;;;;;;4951393;28;20910;-75
2023/06/19 10:41:32;;;;;;;13.45;7.10;;;24.90;99.90;;;;;;4951329;28;20424;-74
2023/06/19 10:44:14;;;;;;;12.73;5.88;;;25.10;99.90;;;;;;4953747;28;21324;-74
2023/06/19 10:46:41;;;;;;;10.75;5.97;;;25.10;99.90;;;;;;4951806;28;20929;-74
2023/06/19 10:49:11;;;;;;;12.80;5.57;;;25.10;99.90;;;;;;4958570;28;20424;-74
2023/06/19 10:51:38;;;;;;;10.50;5.60;;;25.00;99.90;;;;;;4951364;28;20424;-74
2023/06/19 10:54:05;;;;;;;10.98;5.40;;;25.10;99.90;;;;;;4955625;28;20423;-74
2023/06/19 10:56:32;;;;;;;10.20;5.15;;;25.10;99.90;;;;;;4968131;28;20428;-74
2023/06/19 10:59:02;;;;;;;10.70;5.60;;;25.00;99.90;;;;;;4972135;28;20426;-74
2023/06/19 11:01:38;;;;;;;13.98;6.22;;;24.90;99.90;;;;;;4953285;28;21103;-74
2023/06/19 11:04:11;;;;;;;8.55;5.25;;;25.00;99.90;;;;;;5019344;28;20532;-74
2023/06/19 11:06:40;;;;;;;12.27;5.67;;;25.00;99.90;;;;;;4948118;28;20912;-74
2023/06/19 11:09:10;;;;;;;9.73;5.15;;;25.00;99.90;;;;;;4952401;28;21255;-74
2023/06/19 11:11:48;;;;;;;8.93;5.35;;;25.00;99.90;;;;;;4938898;28;20861;-74
2023/06/19 11:14:16;;;;;;;8.80;4.97;;;25.00;99.90;;;;;;4950934;28;20430;-74
2023/06/19 11:16:46;;;;;;;10.60;5.20;;;25.10;99.90;;;;;;4956827;28;20432;-74
2023/06/19 11:19:23;;;;;;;8.95;5.18;;;25.20;99.90;;;;;;4955578;28;20928;-74
2023/06/19 11:21:51;;;;;;;7.13;4.43;;;25.10;99.90;;;;;;4956251;28;20426;-74
2023/06/19 11:24:19;;;;;;;8.38;4.40;;;25.10;99.90;;;;;;4953311;28;20429;-74
2023/06/19 11:26:50;;;;;;;8.10;4.43;;;25.10;99.90;;;;;;4964533;28;21167;-74
2023/06/19 11:29:30;;;;;;;7.57;4.57;;;25.10;99.90;;;;;;4942996;28;20425;-74
2023/06/19 11:32:13;;;;;;;8.50;4.47;;;25.10;99.90;;;;;;4947783;28;20791;-75
2023/06/19 11:34:40;;;;;;;9.32;3.97;;;25.20;99.90;;;;;;4950608;28;20432;-74
2023/06/19 11:37:17;;;;;;;9.30;4.43;;;25.10;99.90;;;;;;4950104;28;21136;-74
2023/06/19 11:39:45;;;;;;;11.40;4.43;;;25.00;99.90;;;;;;4957760;28;20460;-74
2023/06/19 11:42:12;;;;;;;7.90;3.80;;;24.90;99.90;;;;;;4984514;28;20470;-74
2023/06/19 11:45:05;;;;;;;7.65;4.22;;;25.00;99.90;;;;;;4953593;28;20433;-74
2023/06/19 11:47:32;;;;;;;7.22;3.88;;;25.00;99.90;;;;;;4951248;28;20522;-74
2023/06/19 11:50:00;;;;;;;8.82;3.85;;;25.00;99.90;;;;;;4951487;28;20428;-74
2023/06/19 11:52:26;;;;;;;7.17;3.83;;;25.00;99.90;;;;;;4971268;28;20446;-74
2023/06/19 11:54:52;;;;;;;6.93;4.00;;;25.00;99.90;;;;;;4968133;28;20440;-74
2023/06/19 11:57:19;;;;;;;8.70;4.30;;;25.10;99.90;;;;;;4953155;28;20544;-74
2023/06/19 11:59:45;;;;;;;8.05;4.38;;;25.10;99.90;;;;;;4957701;28;20837;-74
2023/06/19 12:02:12;;;;;;;7.47;4.30;;;25.10;99.90;;;;;;4957919;28;20476;-74
2023/06/19 12:04:38;;;;;;;13.13;4.97;;;25.10;99.90;;;;;;4971342;28;20507;-74
2023/06/19 12:07:06;;;;;;;11.55;5.30;;;25.40;99.90;;;;;;4963193;28;20523;-74
2023/06/19 12:09:33;;;;;;;10.88;4.93;;;25.60;99.90;;;;;;4979508;28;20440;-74
2023/06/19 12:12:00;;;;;;;10.88;5.10;;;25.60;99.90;;;;;;4964780;28;20981;-74
2023/06/19 12:14:26;;;;;;;11.43;4.80;;;25.50;99.90;;;;;;4957477;28;20556;-74
2023/06/19 12:16:53;;;;;;;9.60;4.22;;;25.30;99.90;;;;;;4960176;28;20443;-74
2023/06/19 12:19:19;;;;;;;8.02;4.28;;;25.40;99.90;;;;;;4963243;28;20434;-74
2023/06/19 12:21:45;;;;;;;8.98;4.20;;;25.40;99.90;;;;;;4985807;28;20415;-74
2023/06/19 12:24:12;;;;;;;12.15;3.70;;;25.40;99.90;;;;;;4972223;28;20920;-74
2023/06/19 12:26:39;;;;;;;7.93;3.70;;;25.40;99.90;;;;;;4967873;28;20408;-74
2023/06/19 12:29:08;;;;;;;8.43;3.40;;;25.30;99.90;;;;;;4980046;28;20417;-74
2023/06/19 12:31:39;;;;;;;6.30;3.63;;;25.30;99.90;;;;;;4960480;28;20922;-74
2023/06/19 12:34:06;;;;;;;8.38;3.72;;;25.30;99.90;;;;;;4965707;28;20424;-74
2023/06/19 12:36:32;;;;;;;7.80;3.85;;;25.40;99.90;;;;;;4978956;28;20513;-74
2023/06/19 12:39:00;;;;;;;10.00;3.65;;;25.40;99.90;;;;;;4961675;28;20436;-74
2023/06/19 12:41:26;;;;;;;10.55;3.70;;;25.40;99.90;;;;;;4961295;28;20433;-74
2023/06/19 12:43:54;;;;;;;8.25;3.45;;;25.30;99.90;;;;;;4954630;28;20423;-74
2023/06/19 12:46:21;;;;;;;8.97;3.73;;;25.20;99.90;;;;;;4957770;28;20465;-74
2023/06/19 12:48:50;;;;;;;6.05;3.10;;;25.30;99.90;;;;;;4959305;28;20995;-74
2023/06/19 12:51:20;;;;;;;6.63;3.60;;;25.30;99.90;;;;;;4956318;28;21086;-74
2023/06/19 12:53:46;;;;;;;7.30;3.80;;;25.30;99.90;;;;;;4997919;28;20424;-74
2023/06/19 12:56:12;;;;;;;7.28;3.20;;;25.30;99.90;;;;;;4951026;28;20508;-74
2023/06/19 12:58:39;;;;;;;7.63;3.63;;;25.20;99.90;;;;;;4961852;28;20422;-74
2023/06/19 13:01:05;;;;;;;8.52;3.75;;;25.20;99.90;;;;;;4967061;28;20425;-74
2023/06/19 13:03:31;;;;;;;6.53;3.40;;;25.20;99.90;;;;;;4960622;28;20476;-74
2023/06/19 13:05:57;;;;;;;9.83;3.73;;;25.10;99.90;;;;;;4978981;28;20428;-73
2023/06/19 13:08:24;;;;;;;8.38;3.78;;;25.00;99.90;;;;;;4953207;28;20418;-73
2023/06/19 13:10:51;;;;;;;7.25;3.45;;;25.00;99.90;;;;;;4974931;28;21226;-73
2023/06/19 13:13:17;;;;;;;8.50;3.83;;;25.00;99.90;;;;;;4969464;28;20408;-73
2023/06/19 13:15:43;;;;;;;8.05;3.75;;;25.10;99.90;;;;;;4940756;28;20523;-73
2023/06/19 13:18:09;;;;;;;9.73;3.88;;;25.20;99.90;;;;;;4958209;28;20430;-74